Terminal Aerodrome Forecast
Issued by NWS

Home | Current Version | Previous Version | Text Only | Print | Product List | Glossary On
Versions: 1 2 3 4 5 6 7 8 9 10 11 12 13 14 15 16
000
FTUS43 KGRB 290520
TAFRHI
TAF
KRHI 290520Z 2906/3006 18007KT P6SM SCT018 BKN045
      TEMPO 2906/2908 4SM BR BKN018
     FM290800 21006KT 6SM BR BKN025
      TEMPO 2908/2912 2SM -SHRA BR BKN014
     FM291200 22005KT 5SM -SHRA OVC010
     FM291700 23005KT P6SM -SHRA SCT018 OVC030
     FM292100 26009KT P6SM VCSH BKN035
     FM300000 29007KT P6SM SCT045
     FM300200 28005KT P6SM SCT150=

USA.gov is the U.S. government's official web portal to all federal, state and local government web resources and services.